Algood, Tennessee
Current Conditions -  °F | °C
As of 11:35 AM on Saturday 22 Nov 2014 (Local Time) from KSRB Reporting Station
Clear Clear  
Wind Chill: 63°   Ceiling: Unl
Heat Index: 63°   Visibility: 10mi
Dew Point: 32°   Wind: 13mph
Humidity: 32%   Direction: 190°S
Pressure: 30.3"   Gusts: NA
Location:  36.1802°N, 85.4582°W
Report Text: KSRB 221735Z AUTO 19011KT 10SM CLR 17/00 A3030 RMK
Loading
Personal Weather Stations






























Interactive Weather Map New forecast layout! Learn more

10-Day Weather Forecast

Advertisements
Track Severe Weather on mobile